createdAt,value
2018-05-17T00:00:26.597Z,12.9
2018-05-17T00:01:26.038Z,12.9
2018-05-17T00:02:24.996Z,12.9
2018-05-17T00:03:24.119Z,12.9
2018-05-17T00:04:23.421Z,12.9
2018-05-17T00:05:22.755Z,12.9
2018-05-17T00:06:21.995Z,12.9
2018-05-17T00:06:52.755Z,12.9
2018-05-17T00:07:23.372Z,12.9
2018-05-17T00:07:53.418Z,12.9
2018-05-17T00:08:23.950Z,12.9
2018-05-17T00:08:54.599Z,12.9
2018-05-17T00:09:25.138Z,12.9
2018-05-17T00:09:55.780Z,12.9
2018-05-17T00:11:18.266Z,12.8
2018-05-17T00:12:17.704Z,12.8
2018-05-17T00:13:16.531Z,12.8
2018-05-17T00:14:15.983Z,12.8
2018-05-17T00:15:15.215Z,12.8
2018-05-17T00:16:14.552Z,12.8
2018-05-17T00:17:13.825Z,12.8
2018-05-17T00:17:44.359Z,12.8
2018-05-17T00:18:15.111Z,12.8
2018-05-17T00:18:45.270Z,12.8
2018-05-17T00:19:15.806Z,12.9
2018-05-17T00:19:46.243Z,12.9
2018-05-17T00:20:16.882Z,12.9
2018-05-17T00:20:47.126Z,12.9
2018-05-17T00:22:09.720Z,12.8
2018-05-17T00:23:08.958Z,12.8
2018-05-17T00:24:08.489Z,12.8
2018-05-17T00:25:07.502Z,12.8
2018-05-17T00:26:06.937Z,12.8
2018-05-17T00:27:05.659Z,12.8
2018-05-17T00:29:04.174Z,12.8
2018-05-17T00:31:02.690Z,12.8
2018-05-17T00:31:33.334Z,12.8
2018-05-17T00:32:03.987Z,12.8
2018-05-17T00:33:01.314Z,12.8
2018-05-17T00:34:00.664Z,12.8
2018-05-17T00:35:00.002Z,12.8
2018-05-17T00:35:59.456Z,12.8
2018-05-17T00:36:58.279Z,12.8
2018-05-17T00:37:28.824Z,12.8
2018-05-17T00:37:59.474Z,12.8
2018-05-17T00:38:29.566Z,12.8
2018-05-17T00:39:00.323Z,12.8
2018-05-17T00:39:56.058Z,12.8
2018-05-17T00:40:55.406Z,12.8
2018-05-17T00:41:54.739Z,12.8
2018-05-17T00:42:53.580Z,12.8
2018-05-17T00:43:52.907Z,12.8
2018-05-17T00:44:52.149Z,12.8
2018-05-17T00:45:51.487Z,12.8
2018-05-17T00:46:50.943Z,12.8
2018-05-17T00:48:49.166Z,12.8
2018-05-17T00:49:19.701Z,12.8
2018-05-17T00:49:50.242Z,12.7
2018-05-17T00:50:20.893Z,12.7
2018-05-17T00:51:46.978Z,12.7
2018-05-17T00:52:45.916Z,12.7
2018-05-17T00:53:45.258Z,12.7
2018-05-17T00:54:44.605Z,12.7
2018-05-17T00:55:44.050Z,12.7
2018-05-17T00:56:42.573Z,12.7
2018-05-17T00:57:42.519Z,12.7
2018-05-17T00:58:41.421Z,12.7
2018-05-17T00:59:11.564Z,12.7
2018-05-17T00:59:42.212Z,12.7
2018-05-17T01:00:12.867Z,12.7
2018-05-17T01:02:38.539Z,12.7
2018-05-17T01:03:37.655Z,12.7
2018-05-17T01:04:36.877Z,12.7
2018-05-17T01:05:36.106Z,12.7
2018-05-17T01:06:35.442Z,12.7
2018-05-17T01:07:34.782Z,12.8
2018-05-17T01:08:33.791Z,12.7
2018-05-17T01:09:33.020Z,12.7
2018-05-17T01:11:31.131Z,12.7
2018-05-17T01:12:30.587Z,12.7
2018-05-17T01:13:29.920Z,12.7
2018-05-17T01:14:29.249Z,12.7
2018-05-17T01:15:28.695Z,12.7
2018-05-17T01:16:27.537Z,12.7
2018-05-17T01:17:27.007Z,12.7
2018-05-17T01:18:25.841Z,12.7
2018-05-17T01:19:25.201Z,12.7
2018-05-17T01:21:23.605Z,12.7
2018-05-17T01:22:22.523Z,12.7
2018-05-17T01:23:22.250Z,12.7
2018-05-17T01:24:21.691Z,12.7
2018-05-17T01:25:20.626Z,12.7
2018-05-17T01:25:51.269Z,12.7
2018-05-17T01:26:21.307Z,12.7
2018-05-17T01:27:19.240Z,12.7
2018-05-17T01:28:18.153Z,12.7
2018-05-17T01:29:17.580Z,12.7
2018-05-17T01:30:16.934Z,12.7
2018-05-17T01:31:16.286Z,12.7
2018-05-17T01:32:15.121Z,12.7
2018-05-17T01:34:13.971Z,12.7
2018-05-17T01:35:13.307Z,12.7
2018-05-17T01:36:12.152Z,12.7
2018-05-17T01:37:11.483Z,12.7
2018-05-17T01:38:10.709Z,12.7
2018-05-17T01:39:09.935Z,12.7
2018-05-17T01:40:09.161Z,12.7
2018-05-17T01:41:08.508Z,12.7
2018-05-17T01:42:07.627Z,12.7
2018-05-17T01:43:06.685Z,12.7
2018-05-17T01:44:06.130Z,12.7
2018-05-17T01:45:05.466Z,12.7
2018-05-17T01:45:35.904Z,12.7
2018-05-17T01:46:06.239Z,12.8
2018-05-17T01:46:36.560Z,12.8
2018-05-17T01:47:07.203Z,12.8
2018-05-17T01:47:37.522Z,12.8
2018-05-17T01:49:02.034Z,12.8
2018-05-17T01:50:01.256Z,12.8
2018-05-17T01:51:00.694Z,12.8
2018-05-17T01:52:00.024Z,12.8
2018-05-17T01:52:59.361Z,12.8
2018-05-17T01:53:58.188Z,12.8
2018-05-17T01:54:57.628Z,12.8
2018-05-17T01:55:27.764Z,12.8
2018-05-17T01:55:58.409Z,12.8
2018-05-17T01:56:29.053Z,12.8
2018-05-17T01:56:59.205Z,12.8
2018-05-17T01:57:29.962Z,12.8
2018-05-17T01:58:00.108Z,12.8
2018-05-17T01:58:30.652Z,12.8
2018-05-17T01:59:53.642Z,12.8
2018-05-17T02:00:52.979Z,12.8
2018-05-17T02:02:51.090Z,12.8
2018-05-17T02:03:50.316Z,12.8
2018-05-17T02:04:49.666Z,12.8
2018-05-17T02:16:32.173Z,12.8
2018-05-17T02:17:40.064Z,12.9
2018-05-17T02:18:38.997Z,12.9
2018-05-17T02:19:38.433Z,12.9
2018-05-17T02:20:37.787Z,12.9
2018-05-17T02:21:36.402Z,12.9
2018-05-17T02:22:36.120Z,12.9
2018-05-17T02:23:35.342Z,13
2018-05-17T02:24:34.465Z,12.9
2018-05-17T02:25:33.789Z,12.9
2018-05-17T02:26:04.220Z,12.9
2018-05-17T02:26:34.869Z,13
2018-05-17T02:27:05.411Z,13
2018-05-17T02:28:31.303Z,13
2018-05-17T02:29:30.756Z,13
2018-05-17T02:30:30.093Z,13
2018-05-17T02:31:28.718Z,12.9
2018-05-17T02:32:28.673Z,13
2018-05-17T02:33:27.608Z,13
2018-05-17T02:34:26.624Z,13
2018-05-17T02:35:25.853Z,13
2018-05-17T02:36:25.099Z,13
2018-05-17T02:36:55.853Z,13
2018-05-17T02:37:26.025Z,13
2018-05-17T02:37:56.679Z,13
2018-05-17T02:38:27.337Z,13
2018-05-17T02:38:57.994Z,13
2018-05-17T02:39:28.547Z,13
2018-05-17T02:39:59.315Z,13
2018-05-17T02:42:20.694Z,13
2018-05-17T02:43:19.819Z,13
2018-05-17T02:44:19.170Z,13
2018-05-17T02:45:18.525Z,13
2018-05-17T02:46:17.362Z,13
2018-05-17T02:47:16.698Z,13
2018-05-17T02:48:15.940Z,13
2018-05-17T02:48:46.476Z,13
2018-05-17T02:49:17.773Z,13
2018-05-17T02:49:47.450Z,13
2018-05-17T02:50:18.226Z,13
2018-05-17T02:50:48.772Z,13
2018-05-17T02:51:19.324Z,13
2018-05-17T02:52:13.133Z,13.1
2018-05-17T02:53:11.867Z,13.1
2018-05-17T02:54:11.211Z,13.1
2018-05-17T02:55:10.567Z,13
2018-05-17T02:56:09.795Z,13
2018-05-17T02:57:09.038Z,13
2018-05-17T02:58:08.280Z,13
2018-05-17T02:59:07.626Z,13.1
2018-05-17T03:00:06.746Z,13
2018-05-17T03:01:05.983Z,13
2018-05-17T03:02:05.427Z,13
2018-05-17T03:03:04.891Z,13
2018-05-17T03:04:03.509Z,13
2018-05-17T03:05:02.787Z,13.1
2018-05-17T03:06:02.014Z,13.1
2018-05-17T03:07:01.354Z,13.1
2018-05-17T03:08:00.480Z,13.1
2018-05-17T03:08:31.231Z,13.1
2018-05-17T03:09:59.157Z,13.1
2018-05-17T03:10:58.498Z,13.1
2018-05-17T03:11:57.972Z,13.1
2018-05-17T03:12:56.923Z,13.1
2018-05-17T03:13:56.047Z,13.1
2018-05-17T03:14:55.382Z,13.1
2018-05-17T03:15:54.605Z,13.1
2018-05-17T03:16:53.944Z,13.1
2018-05-17T03:17:53.276Z,13.1
2018-05-17T03:18:52.168Z,13.1
2018-05-17T03:19:22.997Z,13.1
2018-05-17T03:19:53.254Z,13.1
2018-05-17T03:20:50.576Z,13.1
2018-05-17T03:21:49.913Z,13.1
2018-05-17T03:22:49.138Z,13.1
2018-05-17T03:23:48.364Z,13.1
2018-05-17T03:24:47.701Z,13.1
2018-05-17T03:25:47.286Z,13.1
2018-05-17T03:26:46.013Z,13.1
2018-05-17T03:27:45.452Z,13.1
2018-05-17T03:28:44.789Z,13.1
2018-05-17T03:29:43.631Z,13.1
2018-05-17T03:30:42.756Z,13.1
2018-05-17T03:31:42.216Z,13.1
2018-05-17T03:32:41.442Z,13.1
2018-05-17T03:33:40.779Z,13.1
2018-05-17T03:34:40.219Z,13.1
2018-05-17T03:35:10.651Z,13.1
2018-05-17T03:35:41.186Z,13.1
2018-05-17T03:36:11.937Z,13.1
2018-05-17T03:37:37.939Z,13
2018-05-17T03:38:36.777Z,13
2018-05-17T03:39:36.110Z,13.1
2018-05-17T03:41:34.947Z,13
2018-05-17T03:42:33.894Z,13
2018-05-17T03:43:33.135Z,13
2018-05-17T03:44:32.484Z,13
2018-05-17T03:45:03.038Z,13
2018-05-17T03:45:33.582Z,13
2018-05-17T03:46:04.018Z,13
2018-05-17T03:47:30.035Z,12.9
2018-05-17T03:48:29.267Z,12.9
2018-05-17T03:49:28.599Z,12.9
2018-05-17T03:50:27.825Z,12.9
2018-05-17T03:51:27.051Z,12.9
2018-05-17T03:52:26.173Z,12.9
2018-05-17T03:53:25.513Z,12.9
2018-05-17T03:54:24.961Z,12.9
2018-05-17T03:55:23.808Z,12.8
2018-05-17T03:56:23.040Z,12.8
2018-05-17T03:57:22.478Z,12.8
2018-05-17T03:58:21.822Z,12.8
2018-05-17T03:59:20.773Z,12.8
2018-05-17T04:00:20.114Z,12.8
2018-05-17T04:01:19.645Z,12.8
2018-05-17T04:02:18.587Z,12.8
2018-05-17T04:03:17.807Z,12.7
2018-05-17T04:04:16.928Z,12.7
2018-05-17T04:05:16.157Z,12.7
2018-05-17T04:06:15.330Z,12.7
2018-05-17T04:07:14.592Z,12.7
2018-05-17T04:08:13.825Z,12.7
2018-05-17T04:09:13.253Z,12.7
2018-05-17T04:10:12.486Z,12.6
2018-05-17T04:11:11.930Z,12.6
2018-05-17T04:12:10.656Z,12.6
2018-05-17T04:13:09.885Z,12.6
2018-05-17T04:14:09.329Z,12.6
2018-05-17T04:14:39.585Z,12.6
2018-05-17T04:15:10.065Z,12.6
2018-05-17T04:15:40.383Z,12.6
2018-05-17T04:16:11.026Z,12.6
2018-05-17T04:16:41.281Z,12.6
2018-05-17T04:17:11.712Z,12.6
2018-05-17T04:17:42.461Z,12.6
2018-05-17T04:19:05.570Z,12.5
2018-05-17T04:20:05.025Z,12.5
2018-05-17T04:21:03.869Z,12.5
2018-05-17T04:22:02.790Z,12.5
2018-05-17T04:23:02.140Z,12.5
2018-05-17T04:24:01.362Z,12.4
2018-05-17T04:25:00.380Z,12.4
2018-05-17T04:25:31.036Z,12.4
2018-05-17T04:26:01.294Z,12.4
2018-05-17T04:26:31.547Z,12.4
2018-05-17T04:27:01.583Z,12.4
2018-05-17T04:27:32.336Z,12.4
2018-05-17T04:28:02.379Z,12.4
2018-05-17T04:28:32.612Z,12.4
2018-05-17T04:29:57.116Z,12.4
2018-05-17T04:30:55.835Z,12.4
2018-05-17T04:31:55.455Z,12.3
2018-05-17T04:32:54.895Z,12.3
2018-05-17T04:33:53.626Z,12.3
2018-05-17T04:34:53.080Z,12.3
2018-05-17T04:35:52.190Z,12.3
2018-05-17T04:36:51.416Z,12.3
2018-05-17T04:38:50.039Z,12.3
2018-05-17T04:39:49.485Z,12.3
2018-05-17T04:40:48.203Z,12.2
2018-05-17T04:41:47.430Z,12.2
2018-05-17T04:42:46.556Z,12.2
2018-05-17T04:43:46.006Z,12.2
2018-05-17T04:44:45.353Z,12.2
2018-05-17T04:45:44.691Z,12.2
2018-05-17T04:46:43.636Z,12.2
2018-05-17T04:47:43.075Z,12.2
2018-05-17T04:48:42.311Z,12.2
2018-05-17T04:49:41.642Z,12.2
2018-05-17T04:50:40.468Z,12.1
2018-05-17T04:51:39.590Z,12.1
2018-05-17T04:52:38.706Z,12.1
2018-05-17T04:53:38.317Z,12.1
2018-05-17T04:54:37.555Z,12.1
2018-05-17T04:55:36.889Z,12
2018-05-17T04:56:36.236Z,12
2018-05-17T04:57:06.894Z,12
2018-05-17T04:57:37.434Z,12
2018-05-17T04:58:08.211Z,12
2018-05-17T04:59:33.612Z,12
2018-05-17T05:00:32.958Z,12
2018-05-17T05:01:32.071Z,12
2018-05-17T05:03:30.788Z,12
2018-05-17T05:05:28.844Z,12
2018-05-17T05:06:28.063Z,12
2018-05-17T05:07:27.405Z,12
2018-05-17T05:07:57.729Z,12
2018-05-17T05:09:25.636Z,12
2018-05-17T05:10:25.005Z,12
2018-05-17T05:12:23.113Z,12
2018-05-17T05:13:22.843Z,12
2018-05-17T05:14:21.964Z,12
2018-05-17T05:15:21.298Z,12
2018-05-17T05:17:19.515Z,11.9
2018-05-17T05:18:18.637Z,11.9
2018-05-17T05:20:17.456Z,11.9
2018-05-17T05:21:16.275Z,11.9
2018-05-17T05:22:15.714Z,11.9
2018-05-17T05:23:15.045Z,11.9
2018-05-17T05:23:46.000Z,11.9
2018-05-17T05:25:13.595Z,11.8
2018-05-17T05:26:12.541Z,11.9
2018-05-17T05:27:11.871Z,11.8
2018-05-17T05:30:09.595Z,11.8
2018-05-17T05:31:08.654Z,11.8
2018-05-17T05:32:07.384Z,11.8
2018-05-17T05:33:07.116Z,11.8
2018-05-17T05:33:37.655Z,11.8
2018-05-17T05:35:05.179Z,11.8
2018-05-17T05:36:04.511Z,11.8
2018-05-17T05:37:03.637Z,11.8
2018-05-17T05:38:02.854Z,11.8
2018-05-17T05:39:02.184Z,11.9
2018-05-17T05:40:01.441Z,11.9
2018-05-17T05:41:00.682Z,11.8
2018-05-17T05:42:00.131Z,11.8
2018-05-17T05:42:58.968Z,11.8
2018-05-17T05:43:57.977Z,11.8
2018-05-17T05:44:57.429Z,11.8
2018-05-17T05:45:56.482Z,11.8
2018-05-17T05:46:55.825Z,11.8
2018-05-17T05:48:54.570Z,11.8
2018-05-17T05:49:53.488Z,11.8
2018-05-17T05:50:52.924Z,11.8
2018-05-17T05:51:51.766Z,11.8
2018-05-17T05:52:51.096Z,11.7
2018-05-17T05:53:21.634Z,11.7
2018-05-17T05:54:49.442Z,11.8
2018-05-17T05:55:48.769Z,11.8
2018-05-17T05:56:48.215Z,11.8
2018-05-17T05:58:46.224Z,11.8
2018-05-17T06:01:44.326Z,11.7
2018-05-17T06:02:43.054Z,11.7
2018-05-17T06:03:13.816Z,11.7
2018-05-17T06:03:43.961Z,11.7
2018-05-17T06:04:14.612Z,11.7
2018-05-17T06:04:44.837Z,11.7
2018-05-17T06:05:15.592Z,11.7
2018-05-17T06:05:45.751Z,11.7
2018-05-17T06:06:16.502Z,11.7
2018-05-17T06:13:34.318Z,11.8
2018-05-17T06:15:33.151Z,11.8
2018-05-17T06:16:03.072Z,11.8
2018-05-17T06:16:33.829Z,11.8
2018-05-17T06:17:03.968Z,11.8
2018-05-17T06:19:29.984Z,11.8
2018-05-17T06:21:28.203Z,11.8
2018-05-17T06:22:27.436Z,11.9
2018-05-17T06:25:24.872Z,12
2018-05-17T06:26:24.313Z,11.9
2018-05-17T06:28:22.533Z,11.9
2018-05-17T06:29:22.100Z,11.9
2018-05-17T06:30:21.063Z,11.9
2018-05-17T06:34:17.827Z,11.9
2018-05-17T06:34:48.252Z,11.9
2018-05-17T06:36:16.160Z,11.9
2018-05-17T06:38:14.885Z,11.9
2018-05-17T06:41:12.492Z,11.9
2018-05-17T06:43:10.715Z,11.9
2018-05-17T06:45:09.445Z,11.9
2018-05-17T06:45:39.687Z,11.9
2018-05-17T06:46:09.934Z,11.9
2018-05-17T06:46:40.187Z,11.9
2018-05-17T06:48:06.705Z,11.9
2018-05-17T06:51:04.094Z,11.9
2018-05-17T06:53:02.490Z,12
2018-05-17T06:54:01.834Z,11.9
2018-05-17T06:55:01.065Z,11.9
2018-05-17T06:58:58.062Z,11.9
2018-05-17T06:59:57.395Z,12
2018-05-17T07:00:56.983Z,12
2018-05-17T07:01:55.930Z,12
2018-05-17T07:02:54.762Z,12
2018-05-17T07:04:53.271Z,12
2018-05-17T07:05:52.596Z,12
2018-05-17T07:06:52.031Z,12.1
2018-05-17T07:07:50.752Z,12
2018-05-17T07:08:50.204Z,12
2018-05-17T07:09:49.534Z,12.1
2018-05-17T07:10:48.758Z,12.1
2018-05-17T07:11:47.379Z,12
2018-05-17T07:12:47.111Z,12
2018-05-17T07:13:46.122Z,12
2018-05-17T07:15:44.781Z,12
2018-05-17T07:16:43.882Z,12
2018-05-17T07:18:45.237Z,12
2018-05-17T07:19:41.405Z,12
2018-05-17T07:21:40.144Z,12
2018-05-17T07:22:38.983Z,12
2018-05-17T07:23:38.220Z,12
2018-05-17T07:24:37.450Z,11.9
2018-05-17T07:25:36.799Z,12
2018-05-17T07:26:36.138Z,12
2018-05-17T07:30:32.639Z,12
2018-05-17T07:32:31.364Z,12
2018-05-17T07:34:29.471Z,12
2018-05-17T07:35:28.821Z,12
2018-05-17T07:37:27.232Z,12
2018-05-17T07:38:26.679Z,12
2018-05-17T07:39:25.399Z,12
2018-05-17T07:40:25.130Z,12
2018-05-17T07:41:23.967Z,12
2018-05-17T07:41:54.615Z,12
2018-05-17T07:42:25.258Z,12
2018-05-17T07:42:55.694Z,12
2018-05-17T07:45:21.093Z,12
2018-05-17T07:46:20.316Z,12
2018-05-17T07:47:20.073Z,12
2018-05-17T07:48:18.497Z,12
2018-05-17T07:49:17.830Z,12
2018-05-17T07:51:16.044Z,12.1
2018-05-17T07:51:46.697Z,12.1
2018-05-17T07:52:17.241Z,12.1
2018-05-17T07:52:47.772Z,12.1
2018-05-17T07:53:18.415Z,12.1
2018-05-17T07:53:48.834Z,12.1
2018-05-17T07:55:13.226Z,12.1
2018-05-17T07:56:12.659Z,12.1
2018-05-17T07:58:10.985Z,12.1
2018-05-17T08:00:09.211Z,12.1
2018-05-17T08:01:08.331Z,12.1
2018-05-17T08:02:07.572Z,12.1
2018-05-17T08:03:06.804Z,12.1
2018-05-17T08:05:04.808Z,12.1
2018-05-17T08:05:35.451Z,12.1
2018-05-17T08:09:01.727Z,12.1
2018-05-17T08:10:01.263Z,12.1
2018-05-17T08:11:00.388Z,12.1
2018-05-17T08:11:31.089Z,12.1
2018-05-17T08:12:58.899Z,12.1
2018-05-17T08:13:58.133Z,12.1
2018-05-17T08:14:57.471Z,12.1
2018-05-17T08:15:56.800Z,12.1
2018-05-17T08:16:55.635Z,12.1
2018-05-17T08:18:54.352Z,12
2018-05-17T08:19:53.283Z,12
2018-05-17T08:20:52.506Z,12
2018-05-17T08:21:22.843Z,12
2018-05-17T08:21:53.490Z,11.9
2018-05-17T08:22:23.650Z,11.9
2018-05-17T08:22:54.285Z,12
2018-05-17T08:23:24.931Z,12
2018-05-17T08:23:55.459Z,12
2018-05-17T08:24:25.898Z,12
2018-05-17T08:24:56.329Z,12
2018-05-17T08:25:26.987Z,12
2018-05-17T08:26:47.640Z,12
2018-05-17T08:27:46.873Z,12.1
2018-05-17T08:28:46.115Z,12.1
2018-05-17T08:30:44.952Z,12
2018-05-17T08:31:44.198Z,12
2018-05-17T08:32:14.959Z,12
2018-05-17T08:32:45.223Z,12
2018-05-17T08:33:15.376Z,12
2018-05-17T08:33:45.913Z,12
2018-05-17T08:34:16.677Z,12
2018-05-17T08:34:46.720Z,12
2018-05-17T08:35:17.471Z,12
2018-05-17T08:36:39.972Z,11.9
2018-05-17T08:39:37.589Z,11.9
2018-05-17T08:40:36.928Z,11.9
2018-05-17T08:41:36.048Z,11.9
2018-05-17T08:42:35.822Z,11.9
2018-05-17T08:44:33.642Z,11.9
2018-05-17T08:45:33.137Z,11.9
2018-05-17T08:46:03.201Z,11.9
2018-05-17T08:48:30.510Z,11.9
2018-05-17T08:49:29.893Z,11.9
2018-05-17T08:50:29.225Z,11.9
2018-05-17T08:51:28.057Z,11.9
2018-05-17T08:52:27.392Z,11.9
2018-05-17T08:53:26.507Z,11.9
2018-05-17T08:55:25.134Z,11.8
2018-05-17T08:56:23.956Z,11.8
2018-05-17T08:57:23.686Z,11.8
2018-05-17T08:58:22.633Z,11.8
2018-05-17T08:59:21.975Z,11.9
2018-05-17T09:02:19.434Z,11.7
2018-05-17T09:04:18.270Z,11.7
2018-05-17T09:04:48.810Z,11.7
2018-05-17T09:06:17.090Z,11.7
2018-05-17T09:07:15.840Z,11.7
2018-05-17T09:08:14.458Z,11.7
2018-05-17T09:09:13.569Z,11.8
2018-05-17T09:12:11.690Z,11.8
2018-05-17T09:13:11.130Z,11.8
2018-05-17T09:14:09.863Z,11.8
2018-05-17T09:15:09.093Z,11.8
2018-05-17T09:15:39.626Z,11.8
2018-05-17T09:17:07.452Z,11.9
2018-05-17T09:19:06.182Z,11.9
2018-05-17T09:20:05.186Z,11.9
2018-05-17T09:20:35.782Z,11.9
2018-05-17T09:21:06.430Z,11.9
2018-05-17T09:22:03.420Z,11.9
2018-05-17T09:23:02.557Z,11.9
2018-05-17T09:24:01.893Z,11.9
2018-05-17T09:25:01.017Z,11.9
2018-05-17T09:26:00.126Z,12
2018-05-17T09:26:59.754Z,12
2018-05-17T09:27:59.094Z,12
2018-05-17T09:29:57.100Z,12.2
2018-05-17T09:30:27.641Z,12.2
2018-05-17T09:31:55.663Z,12.2
2018-05-17T09:32:55.016Z,12.2
2018-05-17T09:34:53.245Z,12.3
2018-05-17T09:35:52.361Z,12.3
2018-05-17T09:36:51.584Z,12.3
2018-05-17T09:37:50.811Z,12.2
2018-05-17T09:38:49.937Z,12.3
2018-05-17T09:39:49.386Z,12.3
2018-05-17T09:42:46.771Z,12.3
2018-05-17T09:43:46.110Z,12.3
2018-05-17T09:44:45.454Z,12.4
2018-05-17T09:45:44.672Z,12.4
2018-05-17T09:46:44.038Z,12.5
2018-05-17T09:47:43.800Z,12.4
2018-05-17T09:48:42.324Z,12.4
2018-05-17T09:49:41.550Z,12.4
2018-05-17T09:50:40.793Z,12.4
2018-05-17T09:51:40.108Z,12.5
2018-05-17T09:52:38.841Z,12.5
2018-05-17T09:53:38.289Z,12.4
2018-05-17T09:54:37.747Z,12.5
2018-05-17T09:55:36.860Z,12.5
2018-05-17T09:56:36.175Z,12.5
2018-05-17T09:59:33.778Z,12.6
2018-05-17T10:00:04.421Z,12.6
2018-05-17T10:01:32.044Z,12.6
2018-05-17T10:02:31.171Z,12.7
2018-05-17T10:03:30.505Z,12.8
2018-05-17T10:04:29.737Z,12.9
2018-05-17T10:05:29.183Z,12.9
2018-05-17T10:06:27.921Z,12.9
2018-05-17T10:08:26.767Z,12.9
2018-05-17T10:09:25.486Z,12.9
2018-05-17T10:09:56.035Z,12.9
2018-05-17T10:10:26.580Z,12.9
2018-05-17T10:10:57.010Z,12.9
2018-05-17T10:11:27.779Z,12.9
2018-05-17T10:11:58.207Z,12.9
2018-05-17T10:12:28.965Z,12.9
2018-05-17T10:12:59.183Z,12.9
2018-05-17T10:13:29.224Z,12.9
2018-05-17T10:13:59.760Z,12.9
2018-05-17T10:15:21.234Z,12.9
2018-05-17T10:16:20.468Z,12.9
2018-05-17T10:17:19.799Z,13
2018-05-17T10:18:18.715Z,13
2018-05-17T10:19:18.061Z,13
2018-05-17T10:20:17.509Z,13
2018-05-17T10:21:16.119Z,13.1
2018-05-17T10:22:15.451Z,13.1
2018-05-17T10:22:46.099Z,13.1
2018-05-17T10:24:13.797Z,13.1
2018-05-17T10:24:44.550Z,13.1
2018-05-17T10:26:12.587Z,13.2
2018-05-17T10:27:11.819Z,13.3
2018-05-17T10:28:11.047Z,13.4
2018-05-17T10:30:09.147Z,13.4
2018-05-17T10:31:08.872Z,13.4
2018-05-17T10:32:07.494Z,13.5
2018-05-17T10:34:06.002Z,13.5
2018-05-17T10:35:05.618Z,13.5
2018-05-17T10:37:04.222Z,13.6
2018-05-17T10:38:03.568Z,13.5
2018-05-17T10:39:02.189Z,13.6
2018-05-17T10:40:01.609Z,13.7
2018-05-17T10:41:01.068Z,13.8
2018-05-17T10:42:00.409Z,13.9
2018-05-17T10:42:31.051Z,13.9
2018-05-17T10:43:58.686Z,13.8
2018-05-17T10:44:57.907Z,13.9
2018-05-17T10:45:57.143Z,13.9
2018-05-17T10:47:55.964Z,13.8
2018-05-17T10:48:54.849Z,13.7
2018-05-17T10:50:53.588Z,13.7
2018-05-17T10:52:51.908Z,13.7
2018-05-17T10:53:22.056Z,13.7
2018-05-17T10:53:52.584Z,13.8
2018-05-17T10:54:23.542Z,13.8
2018-05-17T10:54:53.696Z,13.7
2018-05-17T10:55:49.293Z,13.6
2018-05-17T10:57:47.896Z,13.6
2018-05-17T10:58:47.245Z,13.6
2018-05-17T11:00:46.082Z,13.6
2018-05-17T11:02:44.406Z,13.6
2018-05-17T11:03:43.525Z,13.6
2018-05-17T11:04:14.297Z,13.6
2018-05-17T11:04:44.964Z,13.6
2018-05-17T11:05:41.673Z,13.7
2018-05-17T11:07:40.178Z,13.8
2018-05-17T11:08:39.800Z,13.9
2018-05-17T11:09:10.578Z,13.9
2018-05-17T11:09:40.721Z,14.1
2018-05-17T11:10:38.056Z,14.2
2018-05-17T11:11:37.502Z,14.3
2018-05-17T11:12:36.855Z,14.4
2018-05-17T11:13:36.193Z,14.5
2018-05-17T11:14:34.820Z,14.5
2018-05-17T11:15:33.947Z,14.4
2018-05-17T11:16:33.669Z,14.4
2018-05-17T11:18:32.287Z,14.4
2018-05-17T11:19:03.048Z,14.4
2018-05-17T11:21:29.737Z,14.3
2018-05-17T11:22:29.062Z,14.4
2018-05-17T11:23:28.293Z,14.4
2018-05-17T11:24:27.413Z,14.5
2018-05-17T11:26:26.242Z,14.5
2018-05-17T11:27:25.581Z,14.7
2018-05-17T11:31:22.586Z,14.7
2018-05-17T11:32:21.312Z,14.7
2018-05-17T11:33:21.149Z,14.8
2018-05-17T11:34:20.471Z,14.9
2018-05-17T11:37:18.079Z,14.7
2018-05-17T11:38:17.091Z,14.8
2018-05-17T11:39:16.320Z,14.8
2018-05-17T11:41:15.231Z,14.9
2018-05-17T11:42:14.455Z,14.7
2018-05-17T11:43:13.282Z,14.7
2018-05-17T11:44:13.429Z,14.7
2018-05-17T11:45:12.264Z,14.6
2018-05-17T11:47:10.494Z,14.7
2018-05-17T11:48:09.827Z,14.8
2018-05-17T11:50:08.551Z,14.7
2018-05-17T11:50:38.990Z,14.7
2018-05-17T11:51:09.540Z,14.8
2018-05-17T11:51:39.977Z,14.8
2018-05-17T11:53:05.997Z,14.9
2018-05-17T11:57:03.408Z,15.3
2018-05-17T11:59:01.421Z,15.4
2018-05-17T11:59:31.955Z,15.4
2018-05-17T12:00:02.394Z,15.4
2018-05-17T12:00:32.825Z,15.4
2018-05-17T12:01:03.367Z,15.4
2018-05-17T12:01:34.271Z,15.4
2018-05-17T12:02:04.445Z,15.5
2018-05-17T12:02:35.580Z,15.5
2018-05-17T12:03:57.976Z,15.5
2018-05-17T12:04:57.326Z,15.5
2018-05-17T12:05:56.654Z,15.6
2018-05-17T12:06:55.940Z,15.7
2018-05-17T12:07:55.378Z,15.7
2018-05-17T12:08:54.605Z,15.6
2018-05-17T12:09:53.827Z,15.4
2018-05-17T12:10:53.055Z,15.3
2018-05-17T12:12:51.775Z,15.3
2018-05-17T12:13:22.430Z,15.3
2018-05-17T12:14:49.739Z,15.4
2018-05-17T12:15:49.244Z,15.5
2018-05-17T12:16:48.984Z,15.5
2018-05-17T12:17:47.708Z,15.4
2018-05-17T12:18:47.083Z,15.3
2018-05-17T12:19:46.921Z,15.3
2018-05-17T12:20:17.063Z,15.3
2018-05-17T12:20:47.609Z,15.2
2018-05-17T12:21:44.929Z,15.3
2018-05-17T12:23:43.646Z,15.3
2018-05-17T12:25:42.363Z,15.3
2018-05-17T12:26:41.712Z,15.3
2018-05-17T12:27:41.044Z,15.3
2018-05-17T12:28:40.372Z,15.3
2018-05-17T12:32:37.480Z,15.6
2018-05-17T12:33:07.933Z,15.6
2018-05-17T12:35:34.837Z,15.9
2018-05-17T12:36:34.287Z,15.9
2018-05-17T12:37:33.634Z,15.8
2018-05-17T12:38:32.747Z,15.8
2018-05-17T12:39:32.096Z,15.8
2018-05-17T12:41:30.908Z,15.8
2018-05-17T12:42:01.053Z,15.8
2018-05-17T12:42:31.692Z,15.8
2018-05-17T12:43:01.732Z,15.8
2018-05-17T12:45:28.139Z,15.5
2018-05-17T12:46:26.967Z,15.5
2018-05-17T12:48:25.584Z,15.5
2018-05-17T12:49:25.227Z,15.5
2018-05-17T12:52:22.947Z,15.7
2018-05-17T12:55:20.564Z,15.8
2018-05-17T12:56:20.003Z,15.9
2018-05-17T12:57:19.614Z,15.9
2018-05-17T12:58:18.549Z,15.9
2018-05-17T12:59:17.884Z,15.9
2018-05-17T13:00:17.115Z,15.9
2018-05-17T13:01:16.344Z,16
2018-05-17T13:02:15.677Z,16
2018-05-17T13:05:13.687Z,16
2018-05-17T13:06:12.812Z,15.9
2018-05-17T13:07:12.143Z,15.7
2018-05-17T13:08:11.373Z,15.8
2018-05-17T13:08:42.016Z,15.8
2018-05-17T13:09:12.634Z,15.8
2018-05-17T13:10:09.957Z,15.7
2018-05-17T13:11:09.403Z,15.7
2018-05-17T13:14:07.411Z,15.5
2018-05-17T13:15:06.642Z,15.6
2018-05-17T13:16:05.765Z,15.6
2018-05-17T13:17:05.208Z,15.7
2018-05-17T13:18:04.453Z,15.7
2018-05-17T13:19:03.891Z,15.7
2018-05-17T13:20:03.122Z,15.7
2018-05-17T13:21:02.473Z,15.7
2018-05-17T13:23:00.702Z,15.8
2018-05-17T13:24:00.044Z,15.7
2018-05-17T13:24:59.383Z,15.8
2018-05-17T13:26:58.123Z,15.8
2018-05-17T13:27:57.404Z,15.8
2018-05-17T13:28:56.525Z,15.8
2018-05-17T13:29:27.097Z,15.8
2018-05-17T13:29:57.649Z,15.8
2018-05-17T13:30:28.298Z,15.8
2018-05-17T13:31:54.694Z,16
2018-05-17T13:32:53.922Z,16
2018-05-17T13:33:53.252Z,16
2018-05-17T13:34:52.590Z,16
2018-05-17T13:35:51.812Z,15.9
2018-05-17T13:37:50.051Z,16.1
2018-05-17T13:38:49.386Z,16.3
2018-05-17T13:39:20.047Z,16.3
2018-05-17T13:39:50.483Z,16.3
2018-05-17T13:40:20.917Z,16.3
2018-05-17T13:40:51.558Z,16.3
2018-05-17T13:41:21.593Z,16.3
2018-05-17T13:42:46.391Z,16.7
2018-05-17T13:43:46.248Z,16.8
2018-05-17T13:44:45.189Z,17.1
2018-05-17T13:46:43.692Z,17.5
2018-05-17T13:47:43.885Z,17.5
2018-05-17T13:51:40.537Z,17.6
2018-05-17T13:52:10.782Z,17.6
2018-05-17T13:52:40.820Z,17.6
2018-05-17T13:53:11.137Z,17.6
2018-05-17T13:54:38.657Z,17.2
2018-05-17T13:57:36.051Z,17.3
2018-05-17T13:59:35.285Z,17.7
2018-05-17T14:02:34.032Z,17.7
2018-05-17T14:05:31.152Z,17.3
2018-05-17T14:06:30.486Z,17.3
2018-05-17T14:07:29.935Z,17.1
2018-05-17T14:08:29.272Z,17.2
2018-05-17T14:19:21.757Z,17.1
2018-05-17T14:26:16.813Z,17.7
2018-05-17T14:27:16.754Z,17.4
2018-05-17T14:32:13.137Z,17.5
2018-05-17T14:33:12.582Z,17.6
2018-05-17T14:33:43.126Z,17.6
2018-05-17T14:37:09.816Z,17.4
2018-05-17T14:38:09.161Z,17.2
2018-05-17T14:39:08.603Z,17.3
2018-05-17T14:41:07.376Z,17.5
2018-05-17T14:43:05.897Z,17.5
2018-05-17T14:44:05.191Z,17.4
2018-05-17T14:45:04.899Z,17.5
2018-05-17T14:46:04.158Z,17.7
2018-05-17T14:47:03.400Z,17.5
2018-05-17T14:48:02.519Z,17.3
2018-05-17T14:49:02.028Z,17.3
2018-05-17T14:50:01.359Z,17.5
2018-05-17T14:52:00.082Z,17.9
2018-05-17T14:52:59.503Z,17.9
2018-05-17T14:53:29.641Z,17.9
2018-05-17T14:54:57.851Z,18
2018-05-17T14:55:57.947Z,17.8
2018-05-17T14:56:56.785Z,17.9
2018-05-17T14:57:56.122Z,17.9
2018-05-17T14:59:55.135Z,17.7
2018-05-17T15:00:54.368Z,17.8
2018-05-17T15:01:53.602Z,17.9
2018-05-17T15:03:51.994Z,18.1
2018-05-17T15:04:22.741Z,18.1
2018-05-17T15:04:52.876Z,17.9
2018-05-17T15:05:51.008Z,18
2018-05-17T15:06:50.850Z,18.1